createdAt,value
2019-04-26T00:00:02.233Z,17.34
2019-04-26T00:02:48.210Z,17.32
2019-04-26T00:05:18.507Z,17.31
2019-04-26T00:07:48.580Z,17.30
2019-04-26T00:10:37.414Z,17.31
2019-04-26T00:13:16.156Z,17.36
2019-04-26T00:16:01.554Z,17.36
2019-04-26T00:18:31.305Z,17.35
2019-04-26T00:21:00.985Z,17.33
2019-04-26T00:23:30.708Z,17.31
2019-04-26T00:26:00.833Z,17.28
2019-04-26T00:28:30.883Z,17.25
2019-04-26T00:31:00.552Z,17.26
2019-04-26T00:33:30.225Z,17.25
2019-04-26T00:35:59.912Z,17.25
2019-04-26T00:38:29.569Z,17.25
2019-04-26T00:41:00.051Z,17.27
2019-04-26T00:43:30.093Z,17.29
2019-04-26T00:46:01.772Z,17.29
2019-04-26T00:48:32.816Z,17.27
2019-04-26T00:51:04.139Z,17.24
2019-04-26T00:53:34.987Z,17.23
2019-04-26T00:56:06.784Z,17.18
2019-04-26T00:58:37.383Z,17.14
2019-04-26T01:01:07.136Z,17.11
2019-04-26T01:03:37.059Z,17.07
2019-04-26T01:06:09.133Z,17.04
2019-04-26T01:08:38.818Z,16.97
2019-04-26T01:11:08.567Z,16.91
2019-04-26T01:13:38.223Z,16.88
2019-04-26T01:16:07.974Z,16.87
2019-04-26T01:18:37.905Z,16.88
2019-04-26T01:21:10.496Z,16.90
2019-04-26T01:23:43.220Z,16.90
2019-04-26T01:26:23.178Z,16.89
2019-04-26T01:28:58.102Z,16.88
2019-04-26T01:31:30.579Z,16.90
2019-04-26T01:34:00.330Z,16.90
2019-04-26T01:36:31.432Z,16.87
2019-04-26T01:39:08.122Z,16.86
2019-04-26T01:41:46.230Z,16.86
2019-04-26T01:44:34.342Z,16.85
2019-04-26T01:47:04.170Z,16.84
2019-04-26T01:49:34.029Z,16.84
2019-04-26T01:52:08.944Z,16.83
2019-04-26T01:54:42.460Z,16.78
2019-04-26T01:57:12.978Z,16.74
2019-04-26T01:59:47.252Z,16.70
2019-04-26T02:02:27.766Z,16.67
2019-04-26T02:05:00.660Z,16.64
2019-04-26T02:07:40.969Z,16.69
2019-04-26T02:10:17.380Z,16.69
2019-04-26T02:12:49.133Z,16.69
2019-04-26T02:15:23.021Z,16.66
2019-04-26T02:17:56.445Z,16.68
2019-04-26T02:20:53.907Z,16.65
2019-04-26T02:23:35.029Z,16.62
2019-04-26T02:26:22.744Z,16.57
2019-04-26T02:28:52.421Z,16.54
2019-04-26T02:31:22.736Z,16.47
2019-04-26T02:33:52.950Z,16.40
2019-04-26T02:36:23.381Z,16.34
2019-04-26T02:38:55.897Z,16.28
2019-04-26T02:41:27.657Z,16.24
2019-04-26T02:44:00.676Z,16.16
2019-04-26T02:46:42.281Z,16.07
2019-04-26T02:49:36.603Z,15.99
2019-04-26T02:52:14.373Z,15.92
2019-04-26T02:54:52.506Z,15.87
2019-04-26T02:57:34.237Z,15.74
2019-04-26T03:00:08.131Z,15.65
2019-04-26T03:02:40.223Z,15.59
2019-04-26T03:05:10.649Z,15.49
2019-04-26T03:08:02.894Z,15.35
2019-04-26T03:10:40.260Z,15.28
2019-04-26T03:13:20.244Z,15.23
2019-04-26T03:16:10.320Z,15.24
2019-04-26T03:18:51.435Z,15.25
2019-04-26T03:21:28.875Z,15.16
2019-04-26T03:24:19.199Z,15.11
2019-04-26T03:27:16.140Z,14.94
2019-04-26T03:30:17.381Z,14.74
2019-04-26T03:32:54.219Z,14.67
2019-04-26T03:35:56.025Z,14.59
2019-04-26T03:38:41.445Z,14.60
2019-04-26T03:41:44.455Z,14.62
2019-04-26T03:44:25.783Z,14.51
2019-04-26T03:47:00.599Z,14.64
2019-04-26T03:49:54.331Z,14.79
2019-04-26T03:52:53.150Z,14.88
2019-04-26T03:56:13.727Z,14.93
2019-04-26T03:59:07.383Z,14.98
2019-04-26T04:01:47.540Z,15.04
2019-04-26T04:04:43.413Z,15.06
2019-04-26T04:07:16.254Z,15.13
2019-04-26T04:09:50.831Z,15.18
2019-04-26T04:12:27.053Z,15.11
2019-04-26T04:15:12.773Z,15.05
2019-04-26T04:17:51.199Z,15.04
2019-04-26T04:20:46.277Z,15.03
2019-04-26T04:23:27.169Z,15.06
2019-04-26T04:26:00.177Z,15.11
2019-04-26T04:28:49.889Z,15.16
2019-04-26T04:31:29.184Z,15.26
2019-04-26T04:34:23.900Z,15.35
2019-04-26T04:36:56.837Z,15.48
2019-04-26T04:39:35.271Z,15.58
2019-04-26T04:42:34.380Z,15.52
2019-04-26T04:45:21.277Z,15.45
2019-04-26T04:48:20.435Z,15.44
2019-04-26T04:51:01.241Z,15.56
2019-04-26T04:53:55.008Z,15.82
2019-04-26T04:56:55.095Z,16.07
2019-04-26T04:59:32.024Z,16.84
2019-04-26T05:02:24.069Z,17.72
2019-04-26T05:05:16.965Z,18.00
2019-04-26T05:08:08.007Z,18.03
2019-04-26T05:10:51.985Z,18.30
2019-04-26T05:13:32.484Z,18.41
2019-04-26T05:16:32.939Z,18.76
2019-04-26T05:19:42.226Z,18.92
2019-04-26T05:22:26.649Z,18.96
2019-04-26T05:25:41.007Z,19.58
2019-04-26T05:28:22.825Z,20.20
2019-04-26T05:31:14.378Z,20.96
2019-04-26T05:33:56.851Z,21.48
2019-04-26T05:36:36.639Z,22.20
2019-04-26T05:39:40.081Z,22.80
2019-04-26T05:43:00.837Z,23.28
2019-04-26T05:46:02.815Z,23.81
2019-04-26T05:48:55.655Z,24.35
2019-04-26T05:51:59.997Z,24.55
2019-04-26T05:54:54.040Z,24.40
2019-04-26T05:57:58.577Z,24.72
2019-04-26T06:01:03.778Z,24.97
2019-04-26T06:04:39.860Z,24.72
2019-04-26T06:07:32.998Z,24.27
2019-04-26T06:10:36.229Z,24.27
2019-04-26T06:13:57.754Z,24.35
2019-04-26T06:16:57.297Z,24.76
2019-04-26T06:20:24.770Z,24.95
2019-04-26T06:23:08.860Z,25.19
2019-04-26T06:26:05.949Z,25.08
2019-04-26T06:29:01.903Z,25.15
2019-04-26T06:31:40.123Z,25.55
2019-04-26T06:34:18.900Z,25.82
2019-04-26T06:37:30.158Z,25.43
2019-04-26T06:40:18.380Z,24.93
2019-04-26T06:43:15.480Z,25.16
2019-04-26T06:46:33.102Z,25.36
2019-04-26T06:49:24.331Z,24.98
2019-04-26T06:52:02.568Z,24.89
2019-04-26T06:54:44.990Z,24.34
2019-04-26T06:58:03.117Z,24.65
2019-04-26T07:00:47.614Z,24.56
2019-04-26T07:03:29.575Z,24.58
2019-04-26T07:06:02.499Z,24.64
2019-04-26T07:08:57.766Z,24.64
2019-04-26T07:12:15.173Z,24.68
2019-04-26T07:15:37.545Z,24.54
2019-04-26T07:18:55.030Z,24.71
2019-04-26T07:22:12.756Z,24.78
2019-04-26T07:25:17.853Z,24.35
2019-04-26T07:28:05.986Z,24.34
2019-04-26T07:31:06.625Z,24.86
2019-04-26T07:34:09.910Z,25.63
2019-04-26T07:37:16.635Z,25.91
2019-04-26T07:40:34.382Z,25.75
2019-04-26T07:43:35.566Z,26.01
2019-04-26T07:46:27.176Z,25.86
2019-04-26T07:49:33.392Z,26.26
2019-04-26T07:52:49.307Z,26.75
2019-04-26T07:55:37.119Z,27.44
2019-04-26T07:58:42.844Z,27.19
2019-04-26T08:01:36.437Z,27.80
2019-04-26T08:04:11.465Z,28.97
2019-04-26T08:06:54.819Z,27.41
2019-04-26T08:09:27.832Z,25.90
2019-04-26T08:12:06.087Z,24.27
2019-04-26T08:14:48.006Z,23.11
2019-04-26T08:17:36.978Z,22.93
2019-04-26T08:20:23.192Z,23.70
2019-04-26T08:22:57.722Z,24.04
2019-04-26T08:25:31.147Z,25.03
2019-04-26T08:28:03.515Z,25.96
2019-04-26T08:30:35.536Z,27.07
2019-04-26T08:33:11.323Z,28.18
2019-04-26T08:35:44.431Z,28.30
2019-04-26T08:38:20.469Z,28.32
2019-04-26T08:40:45.039Z,28.21
2019-04-26T08:43:33.871Z,28.17
2019-04-26T08:46:21.671Z,28.59
2019-04-26T08:49:11.383Z,29.39
2019-04-26T08:51:42.828Z,30.01
2019-04-26T08:54:21.239Z,30.57
2019-04-26T08:56:58.546Z,30.13
2019-04-26T08:59:31.653Z,29.53
2019-04-26T09:02:27.655Z,29.59
2019-04-26T09:05:18.417Z,29.07
2019-04-26T09:07:53.533Z,28.48
2019-04-26T09:10:25.008Z,28.07
2019-04-26T09:12:57.065Z,28.29
2019-04-26T09:16:01.198Z,28.58
2019-04-26T09:18:42.348Z,28.25
2019-04-26T09:21:03.614Z,28.36
2019-04-26T09:23:57.963Z,29.18
2019-04-26T09:26:48.455Z,28.74
2019-04-26T09:29:32.126Z,28.88
2019-04-26T09:32:09.501Z,29.15
2019-04-26T09:34:41.237Z,29.09
2019-04-26T09:37:11.164Z,29.07
2019-04-26T09:39:42.091Z,28.82
2019-04-26T09:42:21.278Z,28.67
2019-04-26T09:44:57.740Z,29.01
2019-04-26T09:47:31.637Z,29.36
2019-04-26T09:50:23.075Z,29.09
2019-04-26T09:52:52.950Z,29.65
2019-04-26T09:55:34.563Z,30.07
2019-04-26T09:57:57.101Z,29.88
2019-04-26T10:00:29.549Z,29.74
2019-04-26T10:03:00.984Z,29.60
2019-04-26T10:05:30.732Z,29.83
2019-04-26T10:08:00.399Z,29.78
2019-04-26T10:10:35.224Z,29.56
2019-04-26T10:13:21.485Z,29.09
2019-04-26T10:16:02.484Z,29.17
2019-04-26T10:18:29.992Z,29.98
2019-04-26T10:20:59.681Z,30.23
2019-04-26T10:23:29.338Z,29.93
2019-04-26T10:25:59.017Z,30.13
2019-04-26T10:28:28.692Z,30.25
2019-04-26T10:30:58.367Z,30.40
2019-04-26T10:33:28.041Z,31.32
2019-04-26T10:35:57.860Z,31.87
2019-04-26T10:38:27.818Z,31.97
2019-04-26T10:40:57.512Z,31.66
2019-04-26T10:43:29.462Z,31.38
2019-04-26T10:45:59.294Z,31.69
2019-04-26T10:48:28.972Z,31.48
2019-04-26T10:50:58.649Z,30.76
2019-04-26T10:53:50.270Z,30.15
2019-04-26T10:56:49.635Z,30.29
2019-04-26T10:59:34.602Z,30.38
2019-04-26T11:02:06.443Z,30.45
2019-04-26T11:04:37.366Z,30.84
2019-04-26T11:07:07.472Z,30.63
2019-04-26T11:09:37.263Z,30.61
2019-04-26T11:12:09.485Z,31.00
2019-04-26T11:14:39.153Z,30.67
2019-04-26T11:17:11.548Z,29.92
2019-04-26T11:19:40.570Z,30.31
2019-04-26T11:22:10.417Z,30.53
2019-04-26T11:24:40.078Z,30.82
2019-04-26T11:27:11.168Z,30.70
2019-04-26T11:29:40.967Z,30.24
2019-04-26T11:32:11.299Z,29.31
2019-04-26T11:34:42.919Z,28.53
2019-04-26T11:37:13.479Z,28.28
2019-04-26T11:39:43.722Z,28.29
2019-04-26T11:42:13.364Z,27.89
2019-04-26T11:44:44.678Z,28.35
2019-04-26T11:47:14.675Z,28.94
2019-04-26T11:49:44.346Z,29.17
2019-04-26T11:52:14.044Z,29.05
2019-04-26T11:54:43.701Z,29.17
2019-04-26T11:57:13.675Z,29.15
2019-04-26T11:59:43.441Z,28.88
2019-04-26T12:02:16.131Z,28.56
2019-04-26T12:04:56.250Z,28.59
2019-04-26T12:07:28.829Z,29.14
2019-04-26T12:10:00.176Z,29.36
2019-04-26T12:12:29.846Z,29.46
2019-04-26T12:14:59.499Z,28.70
2019-04-26T12:17:31.240Z,28.05
2019-04-26T12:20:00.550Z,26.64
2019-04-26T12:22:30.226Z,25.99
2019-04-26T12:25:03.438Z,25.97
2019-04-26T12:27:31.943Z,26.32
2019-04-26T12:30:01.810Z,27.25
2019-04-26T12:32:31.627Z,27.69
2019-04-26T12:35:02.296Z,26.69
2019-04-26T12:37:32.355Z,25.45
2019-04-26T12:40:02.020Z,24.84
2019-04-26T12:42:32.928Z,25.05
2019-04-26T12:45:18.434Z,26.23
2019-04-26T12:47:51.127Z,26.52
2019-04-26T12:50:20.790Z,26.07
2019-04-26T12:52:51.479Z,25.21
2019-04-26T12:55:22.151Z,24.82
2019-04-26T12:57:51.828Z,24.69
2019-04-26T13:00:26.432Z,24.77
2019-04-26T13:02:56.678Z,24.74
2019-04-26T13:05:26.338Z,24.52
2019-04-26T13:07:56.187Z,24.08
2019-04-26T13:10:53.801Z,23.98
2019-04-26T13:13:42.554Z,23.87
2019-04-26T13:16:21.694Z,23.83
2019-04-26T13:18:50.730Z,23.52
2019-04-26T13:21:20.386Z,23.78
2019-04-26T13:23:50.075Z,23.80
2019-04-26T13:26:19.751Z,23.76
2019-04-26T13:28:52.402Z,23.68
2019-04-26T13:31:20.799Z,23.44
2019-04-26T13:33:50.483Z,23.37
2019-04-26T13:36:20.333Z,23.23
2019-04-26T13:38:50.017Z,23.18
2019-04-26T13:41:19.792Z,23.25
2019-04-26T13:43:49.469Z,23.19
2019-04-26T13:46:43.758Z,22.79
2019-04-26T13:49:19.232Z,22.46
2019-04-26T13:51:49.163Z,22.06
2019-04-26T13:54:21.096Z,22.14
2019-04-26T13:56:50.244Z,22.26
2019-04-26T13:59:19.927Z,22.22
2019-04-26T14:01:49.614Z,22.08
2019-04-26T14:04:19.321Z,21.92
2019-04-26T14:06:48.974Z,21.68
2019-04-26T14:09:18.739Z,21.42
2019-04-26T14:11:48.462Z,21.36
2019-04-26T14:14:18.160Z,21.22
2019-04-26T14:16:48.122Z,21.17
2019-04-26T14:19:17.838Z,21.08
2019-04-26T14:21:47.573Z,20.62
2019-04-26T14:24:33.885Z,20.62
2019-04-26T14:27:10.512Z,20.21
2019-04-26T14:29:39.257Z,19.93
2019-04-26T14:32:08.917Z,19.74
2019-04-26T14:34:40.352Z,19.54
2019-04-26T14:37:11.259Z,19.33
2019-04-26T14:39:50.132Z,19.01
2019-04-26T14:42:12.695Z,18.79
2019-04-26T14:44:49.212Z,18.72
2019-04-26T14:47:17.740Z,18.90
2019-04-26T14:49:46.212Z,19.05
2019-04-26T14:52:15.876Z,19.12
2019-04-26T14:54:46.321Z,19.10
2019-04-26T14:57:24.476Z,19.18
2019-04-26T14:59:53.155Z,19.34
2019-04-26T15:02:43.039Z,19.62
2019-04-26T15:05:22.681Z,20.01
2019-04-26T15:07:53.783Z,20.24
2019-04-26T15:10:43.481Z,20.24
2019-04-26T15:13:17.336Z,19.95
2019-04-26T15:15:37.654Z,19.62
2019-04-26T15:18:07.331Z,19.36
2019-04-26T15:20:37.874Z,19.16
2019-04-26T15:23:07.613Z,19.19
2019-04-26T15:25:37.291Z,19.42
2019-04-26T15:28:11.212Z,19.52
2019-04-26T15:30:43.318Z,19.32
2019-04-26T15:33:12.654Z,19.07
2019-04-26T15:35:42.150Z,18.89
2019-04-26T15:38:11.959Z,18.73
2019-04-26T15:41:05.389Z,18.70
2019-04-26T15:44:00.700Z,18.97
2019-04-26T15:46:48.556Z,19.24
2019-04-26T15:49:26.123Z,19.21
2019-04-26T15:51:56.349Z,18.91
2019-04-26T15:54:26.886Z,18.88
2019-04-26T15:56:56.566Z,18.87
2019-04-26T15:59:26.228Z,18.72
2019-04-26T16:01:56.387Z,18.51
2019-04-26T16:04:26.260Z,18.27
2019-04-26T16:06:56.012Z,18.28
2019-04-26T16:09:25.673Z,18.36
2019-04-26T16:11:55.386Z,18.32
2019-04-26T16:14:31.380Z,18.27
2019-04-26T16:16:58.236Z,18.21
2019-04-26T16:19:27.922Z,18.12
2019-04-26T16:21:57.593Z,17.98
2019-04-26T16:24:27.981Z,17.72
2019-04-26T16:26:58.629Z,17.52
2019-04-26T16:29:38.321Z,17.44
2019-04-26T16:32:27.026Z,17.50
2019-04-26T16:34:56.705Z,17.39
2019-04-26T16:37:26.463Z,17.41
2019-04-26T16:39:56.117Z,17.33
2019-04-26T16:42:25.833Z,17.19
2019-04-26T16:44:55.495Z,17.19
2019-04-26T16:47:25.162Z,17.10
2019-04-26T16:49:54.834Z,17.03
2019-04-26T16:52:24.491Z,16.94
2019-04-26T16:55:02.392Z,16.86
2019-04-26T16:57:25.556Z,16.71
2019-04-26T16:59:59.942Z,16.57
2019-04-26T17:02:28.190Z,16.58
2019-04-26T17:05:04.547Z,16.63
2019-04-26T17:07:29.500Z,16.64
2019-04-26T17:09:59.916Z,16.64
2019-04-26T17:12:29.802Z,16.68
2019-04-26T17:14:59.455Z,16.48
2019-04-26T17:17:29.129Z,16.36
2019-04-26T17:19:58.798Z,16.26
2019-04-26T17:22:44.507Z,16.21
2019-04-26T17:25:16.980Z,16.17
2019-04-26T17:27:47.175Z,16.12
2019-04-26T17:30:21.308Z,15.83
2019-04-26T17:32:51.520Z,15.66
2019-04-26T17:35:22.416Z,15.63
2019-04-26T17:37:52.265Z,15.57
2019-04-26T17:40:25.251Z,15.44
2019-04-26T17:42:53.288Z,15.32
2019-04-26T17:45:23.023Z,15.28
2019-04-26T17:47:52.986Z,15.21
2019-04-26T17:50:22.984Z,15.25
2019-04-26T17:52:52.640Z,15.30
2019-04-26T17:55:22.397Z,15.33
2019-04-26T17:57:52.643Z,15.27
2019-04-26T18:00:27.012Z,15.18
2019-04-26T18:02:56.912Z,15.14
2019-04-26T18:05:39.928Z,15.08
2019-04-26T18:07:59.654Z,15.04
2019-04-26T18:10:30.591Z,14.98
2019-04-26T18:13:00.499Z,14.92
2019-04-26T18:15:30.151Z,14.90
2019-04-26T18:18:14.476Z,14.87
2019-04-26T18:21:05.193Z,14.87
2019-04-26T18:23:35.207Z,14.74
2019-04-26T18:26:04.963Z,14.62
2019-04-26T18:28:34.741Z,14.51
2019-04-26T18:31:06.644Z,14.51
2019-04-26T18:33:36.329Z,14.54
2019-04-26T18:36:06.002Z,14.51
2019-04-26T18:38:35.703Z,14.50
2019-04-26T18:41:06.583Z,14.52
2019-04-26T18:43:37.187Z,14.48
2019-04-26T18:46:17.874Z,14.36
2019-04-26T18:48:47.536Z,14.31
2019-04-26T18:51:17.210Z,14.33
2019-04-26T18:54:02.817Z,14.36
2019-04-26T18:56:39.557Z,14.41
2019-04-26T18:59:11.719Z,14.36
2019-04-26T19:01:41.637Z,14.38
2019-04-26T19:04:13.571Z,14.40
2019-04-26T19:06:42.497Z,14.32
2019-04-26T19:09:15.528Z,14.26
2019-04-26T19:11:48.711Z,14.22
2019-04-26T19:14:33.421Z,14.15
2019-04-26T19:17:12.304Z,14.10
2019-04-26T19:19:52.603Z,14.03
2019-04-26T19:22:22.634Z,13.99
2019-04-26T19:24:54.128Z,13.92
2019-04-26T19:27:26.545Z,13.90
2019-04-26T19:29:55.314Z,13.86
2019-04-26T19:32:25.328Z,13.73
2019-04-26T19:34:55.154Z,13.72
2019-04-26T19:37:24.832Z,13.72
2019-04-26T19:39:54.766Z,13.62
2019-04-26T19:42:27.131Z,13.45
2019-04-26T19:45:11.821Z,13.31
2019-04-26T19:47:52.083Z,13.26
2019-04-26T19:50:48.489Z,13.24
2019-04-26T19:53:24.736Z,13.20
2019-04-26T19:56:02.791Z,13.05
2019-04-26T19:58:32.931Z,12.96
2019-04-26T20:01:04.307Z,12.88
2019-04-26T20:03:34.289Z,12.81
2019-04-26T20:06:05.038Z,12.74
2019-04-26T20:08:41.742Z,12.65
2019-04-26T20:11:06.684Z,12.47
2019-04-26T20:13:36.338Z,12.33
2019-04-26T20:16:06.425Z,12.22
2019-04-26T20:18:38.937Z,12.15
2019-04-26T20:21:12.689Z,12.06
2019-04-26T20:23:43.807Z,11.94
2019-04-26T20:26:11.946Z,11.86
2019-04-26T20:28:42.353Z,11.83
2019-04-26T20:31:29.708Z,11.85
2019-04-26T20:33:59.440Z,11.86
2019-04-26T20:36:29.198Z,11.79
2019-04-26T20:38:59.110Z,11.77
2019-04-26T20:41:28.964Z,11.73
2019-04-26T20:44:07.346Z,11.69
2019-04-26T20:46:34.364Z,11.64
2019-04-26T20:49:05.929Z,11.62
2019-04-26T20:51:32.851Z,11.63
2019-04-26T20:54:03.838Z,11.69
2019-04-26T20:56:33.853Z,11.73
2019-04-26T20:59:03.751Z,11.78
2019-04-26T21:01:33.518Z,11.80
2019-04-26T21:04:03.211Z,11.80
2019-04-26T21:06:33.896Z,11.78
2019-04-26T21:09:07.397Z,11.70
2019-04-26T21:11:38.877Z,11.71
2019-04-26T21:14:08.810Z,11.75
2019-04-26T21:16:38.689Z,11.76
2019-04-26T21:19:08.364Z,11.73
2019-04-26T21:21:41.975Z,11.68
2019-04-26T21:24:14.907Z,11.68
2019-04-26T21:27:15.567Z,11.69
2019-04-26T21:30:21.190Z,11.62
2019-04-26T21:33:08.454Z,11.61
2019-04-26T21:35:44.539Z,11.60
2019-04-26T21:38:25.562Z,11.58
2019-04-26T21:41:10.946Z,11.56
2019-04-26T21:43:38.271Z,11.52
2019-04-26T21:46:08.546Z,11.55
2019-04-26T21:48:41.884Z,11.59
2019-04-26T21:51:14.439Z,11.65
2019-04-26T21:53:42.154Z,11.59
2019-04-26T21:56:13.018Z,11.59
2019-04-26T21:58:43.585Z,11.60
2019-04-26T22:01:19.411Z,11.61
2019-04-26T22:03:54.168Z,11.64
2019-04-26T22:06:25.103Z,11.60
2019-04-26T22:09:00.028Z,11.53
2019-04-26T22:11:29.038Z,11.46
2019-04-26T22:14:13.194Z,11.37
2019-04-26T22:17:02.191Z,11.34
2019-04-26T22:20:06.626Z,11.30
2019-04-26T22:22:52.824Z,11.29
2019-04-26T22:25:24.879Z,11.22
2019-04-26T22:28:00.299Z,11.21
2019-04-26T22:30:29.449Z,11.19
2019-04-26T22:32:59.238Z,11.17
2019-04-26T22:35:28.939Z,11.16
2019-04-26T22:37:58.606Z,11.15
2019-04-26T22:40:28.287Z,11.14
2019-04-26T22:43:10.900Z,11.11
2019-04-26T22:45:54.554Z,11.10
2019-04-26T22:48:35.427Z,11.09
2019-04-26T22:51:06.173Z,11.09
2019-04-26T22:53:35.842Z,11.12
2019-04-26T22:56:05.593Z,11.11
2019-04-26T22:58:35.278Z,11.11
2019-04-26T23:01:06.247Z,11.09
2019-04-26T23:03:40.897Z,11.11
2019-04-26T23:06:11.628Z,11.14
2019-04-26T23:08:39.670Z,11.14
2019-04-26T23:11:10.728Z,11.15
2019-04-26T23:13:55.712Z,11.18
2019-04-26T23:16:35.891Z,11.20
2019-04-26T23:19:27.411Z,11.20
2019-04-26T23:21:57.876Z,11.23
2019-04-26T23:24:27.700Z,11.28
2019-04-26T23:26:57.365Z,11.30
2019-04-26T23:29:27.065Z,11.31
2019-04-26T23:31:56.743Z,11.33
2019-04-26T23:34:26.433Z,11.36
2019-04-26T23:36:56.094Z,11.35
2019-04-26T23:39:25.770Z,11.33
2019-04-26T23:41:55.506Z,11.31
2019-04-26T23:44:25.191Z,11.30
2019-04-26T23:47:01.200Z,11.28
2019-04-26T23:49:27.198Z,11.32
2019-04-26T23:51:56.854Z,11.35
2019-04-26T23:54:28.089Z,11.29
2019-04-26T23:56:58.921Z,11.30
2019-04-26T23:59:28.751Z,11.20
